createdAt,value
2018-12-24T00:01:59.754Z,7.60
2018-12-24T00:04:49.638Z,7.50
2018-12-24T00:07:39.479Z,7.50
2018-12-24T00:10:29.295Z,7.60
2018-12-24T00:13:19.178Z,7.60
2018-12-24T00:15:50.691Z,7.60
2018-12-24T00:18:40.521Z,7.60
2018-12-24T00:21:30.416Z,7.50
2018-12-24T00:24:20.288Z,7.50
2018-12-24T00:27:10.150Z,7.60
2018-12-24T00:30:00.304Z,7.60
2018-12-24T00:32:50.179Z,7.70
2018-12-24T00:35:40.043Z,7.60
2018-12-24T00:38:30.247Z,7.50
2018-12-24T00:41:20.381Z,7.70
2018-12-24T00:44:10.549Z,7.60
2018-12-24T00:47:00.502Z,7.70
2018-12-24T00:49:42.819Z,7.60
2018-12-24T00:52:33.317Z,7.50
2018-12-24T00:55:23.177Z,7.70
2018-12-24T00:58:12.976Z,7.60
2018-12-24T01:01:02.787Z,7.60
2018-12-24T01:03:53.608Z,7.70
2018-12-24T01:06:45.172Z,7.70
2018-12-24T01:09:35.043Z,7.60
2018-12-24T01:12:25.035Z,7.70
2018-12-24T01:15:15.149Z,7.80
2018-12-24T01:18:05.296Z,7.70
2018-12-24T01:20:55.140Z,7.80
2018-12-24T01:23:44.989Z,7.80
2018-12-24T01:26:34.842Z,7.50
2018-12-24T01:29:25.334Z,7.60
2018-12-24T01:32:15.217Z,7.60
2018-12-24T01:35:05.083Z,7.80
2018-12-24T01:37:55.552Z,7.60
2018-12-24T01:40:45.426Z,7.80
2018-12-24T01:43:35.970Z,7.90
2018-12-24T01:46:18.322Z,7.90
2018-12-24T01:49:08.289Z,7.90
2018-12-24T01:51:58.430Z,7.60
2018-12-24T01:54:48.352Z,7.90
2018-12-24T01:57:38.214Z,7.70
2018-12-24T02:00:28.584Z,7.80
2018-12-24T02:03:19.077Z,8.10
2018-12-24T02:06:08.946Z,7.80
2018-12-24T02:08:59.460Z,7.90
2018-12-24T02:11:49.334Z,8.10
2018-12-24T02:14:39.198Z,8.00
2018-12-24T02:17:28.506Z,8.20
2018-12-24T02:20:18.396Z,8.00
2018-12-24T02:23:08.277Z,8.20
2018-12-24T02:25:58.188Z,8.20
2018-12-24T02:28:48.628Z,8.10
2018-12-24T02:31:38.503Z,8.00
2018-12-24T02:34:09.432Z,8.00
2018-12-24T02:36:59.682Z,8.10
2018-12-24T02:39:49.538Z,8.10
2018-12-24T02:42:39.770Z,7.90
2018-12-24T02:48:23.494Z,7.90
2018-12-24T02:51:13.885Z,7.80
2018-12-24T02:54:03.719Z,8.00
2018-12-24T02:56:53.869Z,8.00
2018-12-24T02:59:43.724Z,7.90
2018-12-24T03:02:33.612Z,8.00
2018-12-24T03:05:23.475Z,8.00
2018-12-24T03:08:13.351Z,7.90
2018-12-24T03:11:03.803Z,8.10
2018-12-24T03:13:53.934Z,8.00
2018-12-24T03:16:43.821Z,8.00
2018-12-24T03:19:33.672Z,7.90
2018-12-24T03:22:23.839Z,8.10
2018-12-24T03:25:13.973Z,8.00
2018-12-24T03:28:04.110Z,8.10
2018-12-24T03:30:35.337Z,7.90
2018-12-24T03:33:25.144Z,7.70
2018-12-24T03:36:15.007Z,7.80
2018-12-24T03:39:06.581Z,7.90
2018-12-24T03:41:56.456Z,7.70
2018-12-24T03:44:27.295Z,7.80
2018-12-24T03:46:58.194Z,7.70
2018-12-24T03:49:29.027Z,7.80
2018-12-24T03:51:59.838Z,7.90
2018-12-24T03:54:30.718Z,7.90
2018-12-24T03:57:01.668Z,7.80
2018-12-24T03:59:51.548Z,7.90
2018-12-24T04:02:41.959Z,7.80
2018-12-24T04:05:31.815Z,7.90
2018-12-24T04:08:22.045Z,7.70
2018-12-24T04:11:11.881Z,7.60
2018-12-24T04:14:01.737Z,7.60
2018-12-24T04:16:51.978Z,7.60
2018-12-24T04:19:41.839Z,7.00
2018-12-24T04:22:31.793Z,7.60
2018-12-24T04:25:21.635Z,7.60
2018-12-24T04:28:11.510Z,7.60
2018-12-24T04:30:42.352Z,7.50
2018-12-24T04:33:32.217Z,7.70
2018-12-24T04:36:22.039Z,7.60
2018-12-24T04:39:11.920Z,7.50
2018-12-24T04:42:02.618Z,7.60
2018-12-24T04:44:52.748Z,7.80
2018-12-24T04:47:34.832Z,7.60
2018-12-24T04:50:24.667Z,7.70
2018-12-24T04:53:14.756Z,7.70
2018-12-24T04:56:04.856Z,7.60
2018-12-24T04:58:55.060Z,7.60
2018-12-24T05:01:45.221Z,7.60
2018-12-24T05:04:35.087Z,7.40
2018-12-24T05:07:24.920Z,7.30
2018-12-24T05:10:14.794Z,7.30
2018-12-24T05:13:04.965Z,7.50
2018-12-24T05:15:54.820Z,7.50
2018-12-24T05:18:44.243Z,7.50
2018-12-24T05:21:34.141Z,7.50
2018-12-24T05:24:24.272Z,7.50
2018-12-24T05:27:14.122Z,7.50
2018-12-24T05:30:03.981Z,7.50
2018-12-24T05:32:54.096Z,7.20
2018-12-24T05:35:43.995Z,7.30
2018-12-24T05:38:33.892Z,7.20
2018-12-24T05:41:04.780Z,7.30
2018-12-24T05:43:35.874Z,7.30
2018-12-24T05:46:07.392Z,7.20
2018-12-24T05:48:50.911Z,7.10
2018-12-24T05:51:40.818Z,7.10
2018-12-24T05:54:30.971Z,7.20
2018-12-24T05:57:01.897Z,7.20
2018-12-24T05:59:52.034Z,7.20
2018-12-24T06:02:41.927Z,7.10
2018-12-24T06:05:31.769Z,7.10
2018-12-24T06:08:21.649Z,7.20
2018-12-24T06:11:11.757Z,7.10
2018-12-24T06:14:01.635Z,6.70
2018-12-24T06:16:51.506Z,6.40
2018-12-24T06:19:41.807Z,6.50
2018-12-24T06:22:31.964Z,6.50
2018-12-24T06:25:21.845Z,6.30
2018-12-24T06:28:12.693Z,6.50
2018-12-24T06:31:02.565Z,6.40
2018-12-24T06:33:52.451Z,6.30
2018-12-24T06:36:42.575Z,6.30
2018-12-24T06:39:32.460Z,6.00
2018-12-24T06:42:22.340Z,6.30
2018-12-24T06:45:12.809Z,6.20
2018-12-24T06:48:02.668Z,5.90
2018-12-24T06:50:45.496Z,6.10
2018-12-24T06:53:35.329Z,6.20
2018-12-24T06:56:25.208Z,6.10
2018-12-24T06:59:15.694Z,6.40
2018-12-24T07:02:05.709Z,6.30
2018-12-24T07:04:37.212Z,6.30
2018-12-24T07:07:27.366Z,6.10
2018-12-24T07:10:17.267Z,6.30
2018-12-24T07:13:07.143Z,6.40
2018-12-24T07:15:57.053Z,6.30
2018-12-24T07:18:46.880Z,6.30
2018-12-24T07:21:36.807Z,6.20
2018-12-24T07:24:26.679Z,6.10
2018-12-24T07:27:17.394Z,6.00
2018-12-24T07:30:07.291Z,5.80
2018-12-24T07:32:57.717Z,5.80
2018-12-24T07:35:28.553Z,5.80
2018-12-24T07:38:00.088Z,5.70
2018-12-24T07:40:31.291Z,5.70
2018-12-24T07:43:02.482Z,5.60
2018-12-24T07:45:52.336Z,5.40
2018-12-24T07:48:42.217Z,5.30
2018-12-24T07:51:25.193Z,5.10
2018-12-24T07:54:15.540Z,5.30
2018-12-24T07:57:05.406Z,5.20
2018-12-24T07:59:55.277Z,5.40
2018-12-24T08:02:45.208Z,5.10
2018-12-24T08:05:35.291Z,4.90
2018-12-24T08:08:25.573Z,5.40
2018-12-24T08:11:15.752Z,5.10
2018-12-24T08:14:05.685Z,5.10
2018-12-24T08:16:55.549Z,5.30
2018-12-24T08:19:45.424Z,5.40
2018-12-24T08:22:35.621Z,5.30
2018-12-24T08:25:25.609Z,5.60
2018-12-24T08:28:15.465Z,5.70
2018-12-24T08:31:05.371Z,5.90
2018-12-24T08:33:55.234Z,5.80
2018-12-24T08:36:45.105Z,5.70
2018-12-24T08:39:34.967Z,5.70
2018-12-24T08:42:25.097Z,5.70
2018-12-24T08:45:14.955Z,5.60
2018-12-24T08:48:04.830Z,5.80
2018-12-24T08:50:35.689Z,5.90
2018-12-24T08:53:25.630Z,5.80
2018-12-24T08:56:15.504Z,5.70
2018-12-24T08:58:46.395Z,5.80
2018-12-24T09:01:36.512Z,5.70
2018-12-24T09:04:26.670Z,5.40
2018-12-24T09:06:57.898Z,5.60
2018-12-24T09:09:48.122Z,5.80
2018-12-24T09:12:19.546Z,5.80
2018-12-24T09:15:10.250Z,5.80
2018-12-24T09:18:00.147Z,6.00
2018-12-24T09:20:31.087Z,6.00
2018-12-24T09:23:02.462Z,5.80
2018-12-24T09:25:33.374Z,5.80
2018-12-24T09:28:23.252Z,5.70
2018-12-24T09:31:13.913Z,5.70
2018-12-24T09:34:04.015Z,5.70
2018-12-24T09:36:53.909Z,5.50
2018-12-24T09:39:43.767Z,5.90
2018-12-24T09:42:33.639Z,5.60
2018-12-24T09:45:23.559Z,5.60
2018-12-24T09:48:14.051Z,5.80
2018-12-24T09:50:44.945Z,5.90
2018-12-24T09:53:15.791Z,5.90
2018-12-24T09:55:46.789Z,5.90
2018-12-24T09:58:36.637Z,6.00
2018-12-24T10:01:26.508Z,6.00
2018-12-24T10:04:40.684Z,6.00
2018-12-24T10:07:40.252Z,5.60
2018-12-24T10:10:31.121Z,5.80
2018-12-24T10:13:21.241Z,5.90
2018-12-24T10:16:11.761Z,5.90
2018-12-24T10:19:01.616Z,5.90
2018-12-24T10:21:51.527Z,6.10
2018-12-24T10:24:41.401Z,5.80
2018-12-24T10:27:31.557Z,5.80
2018-12-24T10:30:21.399Z,5.80
2018-12-24T10:33:11.287Z,5.50
2018-12-24T10:36:01.171Z,5.60
2018-12-24T10:38:51.062Z,5.80
2018-12-24T10:41:40.932Z,5.70
2018-12-24T10:44:31.391Z,5.70
2018-12-24T10:47:21.297Z,5.80
2018-12-24T10:50:03.406Z,5.70
2018-12-24T10:52:53.575Z,5.90
2018-12-24T10:55:43.733Z,6.10
2018-12-24T10:58:33.908Z,6.20
2018-12-24T11:01:04.855Z,5.90
2018-12-24T11:03:54.715Z,6.00
2018-12-24T11:06:44.608Z,6.10
2018-12-24T11:09:35.199Z,6.20
2018-12-24T11:12:25.062Z,6.00
2018-12-24T11:15:15.252Z,5.90
2018-12-24T11:18:05.149Z,6.00
2018-12-24T11:20:55.264Z,5.80
2018-12-24T11:23:45.114Z,5.40
2018-12-24T11:26:34.991Z,5.90
2018-12-24T11:29:06.166Z,6.20
2018-12-24T11:31:56.069Z,6.00
2018-12-24T11:34:45.938Z,6.10
2018-12-24T11:37:36.098Z,6.10
2018-12-24T11:40:07.375Z,6.20
2018-12-24T11:42:57.367Z,6.50
2018-12-24T11:45:47.501Z,6.00
2018-12-24T11:48:37.513Z,6.00
2018-12-24T11:51:27.693Z,6.00
2018-12-24T11:54:17.817Z,6.20
2018-12-24T11:57:07.097Z,6.10
2018-12-24T11:59:57.328Z,6.10
2018-12-24T12:02:47.185Z,6.10
2018-12-24T12:05:37.414Z,6.10
2018-12-24T12:08:27.288Z,5.90
2018-12-24T12:11:17.180Z,6.20
2018-12-24T12:14:07.063Z,6.50
2018-12-24T12:16:57.369Z,6.70
2018-12-24T12:19:47.212Z,6.50
2018-12-24T12:22:18.837Z,6.40
2018-12-24T12:25:08.681Z,6.20
2018-12-24T12:27:59.066Z,6.20
2018-12-24T12:30:49.373Z,6.50
2018-12-24T12:33:39.264Z,6.60
2018-12-24T12:36:29.101Z,6.70
2018-12-24T12:39:19.232Z,6.60
2018-12-24T12:42:09.116Z,6.40
2018-12-24T12:44:39.974Z,6.50
2018-12-24T12:47:22.184Z,6.50
2018-12-24T12:50:12.080Z,6.60
2018-12-24T12:53:01.903Z,6.50
2018-12-24T12:55:51.786Z,6.50
2018-12-24T12:58:42.000Z,6.20
2018-12-24T13:01:31.900Z,6.50
2018-12-24T13:04:21.756Z,6.60
2018-12-24T13:07:18.779Z,6.70
2018-12-24T13:10:08.651Z,6.70
2018-12-24T13:12:58.500Z,6.50
2018-12-24T13:15:48.372Z,6.40
2018-12-24T13:18:38.262Z,6.40
2018-12-24T13:21:28.453Z,6.40
2018-12-24T13:24:18.335Z,6.40
2018-12-24T13:27:08.183Z,6.60
2018-12-24T13:29:58.069Z,6.50
2018-12-24T13:32:48.001Z,6.60
2018-12-24T13:35:37.872Z,6.70
2018-12-24T13:38:20.695Z,6.50
2018-12-24T13:41:10.524Z,6.70
2018-12-24T13:43:41.426Z,6.60
2018-12-24T13:46:14.614Z,7.00
2018-12-24T13:49:01.843Z,7.00
2018-12-24T13:51:52.019Z,7.10
2018-12-24T13:54:41.913Z,7.10
2018-12-24T13:57:31.756Z,7.00
2018-12-24T14:00:21.667Z,7.20
2018-12-24T14:03:11.518Z,7.40
2018-12-24T14:06:01.727Z,7.40
2018-12-24T14:08:51.978Z,7.40
2018-12-24T14:11:41.818Z,7.10
2018-12-24T14:14:31.658Z,7.00
2018-12-24T14:17:21.671Z,7.20
2018-12-24T14:20:12.029Z,7.00
2018-12-24T14:23:01.892Z,7.30
2018-12-24T14:25:52.027Z,7.50
2018-12-24T14:28:41.905Z,7.50
2018-12-24T14:31:31.776Z,7.40
2018-12-24T14:34:22.289Z,7.40
2018-12-24T14:37:12.749Z,7.20
2018-12-24T14:39:43.649Z,7.30
2018-12-24T14:42:33.512Z,7.20
2018-12-24T14:45:23.404Z,7.40
2018-12-24T14:48:13.512Z,7.10
2018-12-24T14:50:56.460Z,7.40
2018-12-24T14:53:47.135Z,7.40
2018-12-24T14:56:37.021Z,7.40
2018-12-24T14:59:26.911Z,7.30
2018-12-24T15:02:17.093Z,7.40
2018-12-24T15:05:06.985Z,7.40
2018-12-24T15:07:56.925Z,7.40
2018-12-24T15:10:46.856Z,7.40
2018-12-24T15:13:17.738Z,7.40
2018-12-24T15:16:07.632Z,7.40
2018-12-24T15:18:57.716Z,7.30
2018-12-24T15:21:48.147Z,7.40
2018-12-24T15:24:38.032Z,7.30
2018-12-24T15:27:09.015Z,7.40
2018-12-24T15:29:59.408Z,7.40
2018-12-24T15:32:49.383Z,7.20
2018-12-24T15:35:39.483Z,7.40
2018-12-24T15:38:29.368Z,7.20
2018-12-24T15:41:00.313Z,7.40
2018-12-24T15:43:50.329Z,7.40
2018-12-24T15:46:42.767Z,7.30
2018-12-24T15:49:13.184Z,7.30
2018-12-24T15:52:03.350Z,7.40
2018-12-24T15:54:53.228Z,7.40
2018-12-24T15:57:24.095Z,7.40
2018-12-24T15:59:55.415Z,7.40
2018-12-24T16:02:45.349Z,7.40
2018-12-24T16:05:35.270Z,7.20
2018-12-24T16:08:06.131Z,7.40
2018-12-24T16:10:56.021Z,7.30
2018-12-24T16:13:45.896Z,7.20
2018-12-24T16:16:36.034Z,7.20
2018-12-24T16:19:25.886Z,7.20
2018-12-24T16:22:16.028Z,7.10
2018-12-24T16:25:05.926Z,7.10
2018-12-24T16:27:56.108Z,7.10
2018-12-24T16:30:45.968Z,7.20
2018-12-24T16:33:16.890Z,7.20
2018-12-24T16:36:07.582Z,7.10
2018-12-24T16:38:57.504Z,7.10
2018-12-24T16:41:47.437Z,7.20
2018-12-24T16:44:38.162Z,7.10
2018-12-24T16:47:20.998Z,7.00
2018-12-24T16:50:10.890Z,7.10
2018-12-24T16:53:01.156Z,7.00
2018-12-24T16:55:32.294Z,7.10
2018-12-24T16:58:03.169Z,7.20
2018-12-24T17:00:53.217Z,7.20
2018-12-24T17:03:43.026Z,7.20
2018-12-24T17:06:33.029Z,7.20
2018-12-24T17:09:22.893Z,7.20
2018-12-24T17:12:13.781Z,7.00
2018-12-24T17:15:03.770Z,7.00
2018-12-24T17:17:53.708Z,7.00
2018-12-24T17:20:43.619Z,7.00
2018-12-24T17:23:33.933Z,7.10
2018-12-24T17:26:23.808Z,7.20
2018-12-24T17:29:13.705Z,7.10
2018-12-24T17:32:03.571Z,7.10
2018-12-24T17:34:53.788Z,7.10
2018-12-24T17:37:43.686Z,7.00
2018-12-24T17:40:33.596Z,7.20
2018-12-24T17:43:04.777Z,7.30
2018-12-24T17:45:35.685Z,7.20
2018-12-24T17:48:17.890Z,7.20
2018-12-24T17:51:00.896Z,7.30
2018-12-24T17:53:50.778Z,7.30
2018-12-24T17:56:41.146Z,7.00
2018-12-24T17:59:31.279Z,7.00
2018-12-24T18:02:21.455Z,7.20
2018-12-24T18:05:10.946Z,7.20
2018-12-24T18:08:00.856Z,7.20
2018-12-24T18:10:50.772Z,7.20
2018-12-24T18:13:40.676Z,7.10
2018-12-24T18:16:30.561Z,7.10
2018-12-24T18:19:20.907Z,7.20
2018-12-24T18:22:10.751Z,7.10
2018-12-24T18:25:01.002Z,7.10
2018-12-24T18:27:50.900Z,7.10
2018-12-24T18:30:40.829Z,7.00
2018-12-24T18:33:30.827Z,7.10
2018-12-24T18:36:20.766Z,7.10
2018-12-24T18:39:11.117Z,7.10
2018-12-24T18:42:01.314Z,6.90
2018-12-24T18:44:51.451Z,6.80
2018-12-24T18:47:41.439Z,6.90
2018-12-24T18:50:12.313Z,7.00
2018-12-24T18:52:55.210Z,7.00
2018-12-24T18:55:45.119Z,7.10
2018-12-24T18:58:35.024Z,7.00
2018-12-24T19:01:05.994Z,7.10
2018-12-24T19:03:56.262Z,7.00
2018-12-24T19:06:46.169Z,7.00
2018-12-24T19:09:36.051Z,6.90
2018-12-24T19:12:06.940Z,7.00
2018-12-24T19:14:37.943Z,7.00
2018-12-24T19:17:09.107Z,7.00
2018-12-24T19:19:59.279Z,7.10
2018-12-24T19:22:49.145Z,7.00
2018-12-24T19:25:39.305Z,6.80
2018-12-24T19:28:29.200Z,6.90
2018-12-24T19:31:00.133Z,7.00
2018-12-24T19:33:50.404Z,6.80
2018-12-24T19:36:40.355Z,7.10
2018-12-24T19:39:30.363Z,7.20
2018-12-24T19:42:20.560Z,7.10
2018-12-24T19:45:10.471Z,7.00
2018-12-24T19:47:53.101Z,7.10
2018-12-24T19:50:43.040Z,7.10
2018-12-24T19:53:33.179Z,7.30
2018-12-24T19:56:23.075Z,7.30
2018-12-24T19:59:13.269Z,7.30
2018-12-24T20:02:03.188Z,7.20
2018-12-24T20:04:34.084Z,7.20
2018-12-24T20:07:04.968Z,7.20
2018-12-24T20:09:36.242Z,7.20
2018-12-24T20:12:26.115Z,7.10
2018-12-24T20:15:16.033Z,7.20
2018-12-24T20:18:05.896Z,7.20
2018-12-24T20:20:56.397Z,7.30
2018-12-24T20:23:46.313Z,7.30
2018-12-24T20:26:35.566Z,7.20
2018-12-24T20:29:24.751Z,7.20
2018-12-24T20:32:14.724Z,7.20
2018-12-24T20:35:04.565Z,7.20
2018-12-24T20:37:54.440Z,7.20
2018-12-24T20:40:44.565Z,7.30
2018-12-24T20:43:34.423Z,7.30
2018-12-24T20:46:24.312Z,7.10
2018-12-24T20:49:06.525Z,7.20
2018-12-24T20:51:56.748Z,7.10
2018-12-24T20:54:46.618Z,7.20
2018-12-24T20:57:36.469Z,7.10
2018-12-24T21:00:08.238Z,7.20
2018-12-24T21:02:58.373Z,7.10
2018-12-24T21:05:48.261Z,7.20
2018-12-24T21:08:38.133Z,7.20
2018-12-24T21:11:28.364Z,7.20
2018-12-24T21:14:18.245Z,7.20
2018-12-24T21:17:08.130Z,7.30
2018-12-24T21:19:58.970Z,7.20
2018-12-24T21:22:29.833Z,7.20
2018-12-24T21:25:19.982Z,7.30
2018-12-24T21:27:51.092Z,7.10
2018-12-24T21:30:22.063Z,7.00
2018-12-24T21:33:11.896Z,7.20
2018-12-24T21:36:02.221Z,7.20
2018-12-24T21:38:33.184Z,7.20
2018-12-24T21:41:23.135Z,7.20
2018-12-24T21:44:12.988Z,7.30
2018-12-24T21:47:02.900Z,7.40
2018-12-24T21:49:45.984Z,7.40
2018-12-24T21:52:36.364Z,7.30
2018-12-24T21:55:26.556Z,7.30
2018-12-24T21:58:16.337Z,7.30
2018-12-24T22:01:06.218Z,7.30
2018-12-24T22:03:56.505Z,7.30
2018-12-24T22:06:46.402Z,7.20
2018-12-24T22:09:36.359Z,7.40
2018-12-24T22:12:26.265Z,7.20
2018-12-24T22:15:16.146Z,7.30
2018-12-24T22:18:06.019Z,7.40
2018-12-24T22:20:55.942Z,7.30
2018-12-24T22:23:26.847Z,7.30
2018-12-24T22:26:17.074Z,7.30
2018-12-24T22:29:07.267Z,7.40
2018-12-24T22:31:57.204Z,7.00
2018-12-24T22:34:47.175Z,7.20
2018-12-24T22:37:37.304Z,7.20
2018-12-24T22:40:27.216Z,7.20
2018-12-24T22:43:17.088Z,7.30
2018-12-24T22:46:07.278Z,7.40
2018-12-24T22:48:51.584Z,7.40
2018-12-24T22:51:41.500Z,7.30
2018-12-24T22:54:31.426Z,7.20
2018-12-24T22:57:21.606Z,7.30
2018-12-24T23:03:10.104Z,7.20
2018-12-24T23:06:00.466Z,7.20
2018-12-24T23:08:50.376Z,7.10
2018-12-24T23:11:40.266Z,7.10
2018-12-24T23:14:30.094Z,7.10
2018-12-24T23:17:19.992Z,7.10
2018-12-24T23:20:09.866Z,7.10
2018-12-24T23:23:00.112Z,7.00
2018-12-24T23:25:49.965Z,7.10
2018-12-24T23:28:39.547Z,7.10
2018-12-24T23:31:29.640Z,7.20
2018-12-24T23:34:00.566Z,7.10
2018-12-24T23:36:50.442Z,7.20
2018-12-24T23:39:40.587Z,7.30
2018-12-24T23:42:30.464Z,7.30
2018-12-24T23:45:20.630Z,7.30
2018-12-24T23:47:52.029Z,7.10
2018-12-24T23:50:41.906Z,7.10
2018-12-24T23:53:31.787Z,7.20
2018-12-24T23:56:21.667Z,7.10
2018-12-24T23:59:11.787Z,7.20
